sensor_id;sensor_type;location;lat;lon;timestamp;pressure;altitude;pressure_sealevel;temperature;humidity
62725;BME280;49026;52.600;4.694;2023-05-21T00:02:14;102080.66;;;10.41;58.34
62725;BME280;49026;52.600;4.694;2023-05-21T00:04:41;102085.91;;;10.41;58.29
62725;BME280;49026;52.600;4.694;2023-05-21T00:07:06;102080.66;;;10.41;58.58
62725;BME280;49026;52.600;4.694;2023-05-21T00:09:35;102085.03;;;10.42;58.54
62725;BME280;49026;52.600;4.694;2023-05-21T00:12:08;102078.88;;;10.43;59.00
62725;BME280;49026;52.600;4.694;2023-05-21T00:14:34;102075.41;;;10.41;58.80
62725;BME280;49026;52.600;4.694;2023-05-21T00:17:00;102076.25;;;10.43;58.54
62725;BME280;49026;52.600;4.694;2023-05-21T00:19:30;102073.63;;;10.43;58.92
62725;BME280;49026;52.600;4.694;2023-05-21T00:21:57;102074.50;;;10.42;58.86
62725;BME280;49026;52.600;4.694;2023-05-21T00:24:26;102073.69;;;10.40;58.64
62725;BME280;49026;52.600;4.694;2023-05-21T00:26:55;102071.97;;;10.37;58.87
62725;BME280;49026;52.600;4.694;2023-05-21T00:29:22;102077.25;;;10.35;59.38
62725;BME280;49026;52.600;4.694;2023-05-21T00:31:48;102069.38;;;10.35;58.98
62725;BME280;49026;52.600;4.694;2023-05-21T00:34:17;102064.09;;;10.37;59.08
62725;BME280;49026;52.600;4.694;2023-05-21T00:36:44;102064.06;;;10.38;59.13
62725;BME280;49026;52.600;4.694;2023-05-21T00:39:10;102071.00;;;10.43;59.47
62725;BME280;49026;52.600;4.694;2023-05-21T00:41:39;102072.63;;;10.48;59.71
62725;BME280;49026;52.600;4.694;2023-05-21T00:44:07;102060.19;;;10.56;59.83
62725;BME280;49026;52.600;4.694;2023-05-21T00:46:33;102060.00;;;10.66;59.70
62725;BME280;49026;52.600;4.694;2023-05-21T00:48:58;102058.09;;;10.72;59.68
62725;BME280;49026;52.600;4.694;2023-05-21T00:51:24;102052.69;;;10.80;59.77
62725;BME280;49026;52.600;4.694;2023-05-21T00:53:54;102054.28;;;10.87;59.72
62725;BME280;49026;52.600;4.694;2023-05-21T00:56:22;102053.22;;;10.96;60.04
62725;BME280;49026;52.600;4.694;2023-05-21T00:58:48;102046.91;;;11.03;59.79
62725;BME280;49026;52.600;4.694;2023-05-21T01:01:16;102045.88;;;11.10;60.06
62725;BME280;49026;52.600;4.694;2023-05-21T01:03:42;102044.88;;;11.16;59.84
62725;BME280;49026;52.600;4.694;2023-05-21T01:06:13;102042.13;;;11.21;60.18
62725;BME280;49026;52.600;4.694;2023-05-21T01:08:39;102041.97;;;11.27;60.20
62725;BME280;49026;52.600;4.694;2023-05-21T01:11:07;102043.59;;;11.32;60.43
62725;BME280;49026;52.600;4.694;2023-05-21T01:13:37;102047.03;;;11.36;60.21
62725;BME280;49026;52.600;4.694;2023-05-21T01:16:06;102046.00;;;11.42;60.35
62725;BME280;49026;52.600;4.694;2023-05-21T01:18:35;102040.69;;;11.45;60.08
62725;BME280;49026;52.600;4.694;2023-05-21T01:21:02;102037.06;;;11.49;60.45
62725;BME280;49026;52.600;4.694;2023-05-21T01:23:28;102031.72;;;11.52;60.62
62725;BME280;49026;52.600;4.694;2023-05-21T01:25:54;102035.97;;;11.58;60.41
62725;BME280;49026;52.600;4.694;2023-05-21T01:28:19;102027.97;;;11.61;60.48
62725;BME280;49026;52.600;4.694;2023-05-21T01:30:45;102030.50;;;11.65;60.76
62725;BME280;49026;52.600;4.694;2023-05-21T01:33:31;102029.56;;;11.68;60.69
62725;BME280;49026;52.600;4.694;2023-05-21T01:36:09;102027.72;;;11.72;60.90
62725;BME280;49026;52.600;4.694;2023-05-21T01:39:15;102027.66;;;11.75;60.70
62725;BME280;49026;52.600;4.694;2023-05-21T01:41:46;102027.56;;;11.78;60.79
62725;BME280;49026;52.600;4.694;2023-05-21T01:44:15;102028.34;;;11.81;60.58
62725;BME280;49026;52.600;4.694;2023-05-21T01:46:42;102031.81;;;11.83;60.50
62725;BME280;49026;52.600;4.694;2023-05-21T01:49:08;102024.72;;;11.85;60.79
62725;BME280;49026;52.600;4.694;2023-05-21T01:51:34;102030.81;;;11.87;61.13
62725;BME280;49026;52.600;4.694;2023-05-21T01:54:02;102031.66;;;11.90;60.82
62725;BME280;49026;52.600;4.694;2023-05-21T01:56:27;102027.22;;;11.92;60.88
62725;BME280;49026;52.600;4.694;2023-05-21T01:58:54;102027.19;;;11.93;61.09
62725;BME280;49026;52.600;4.694;2023-05-21T02:01:22;102021.88;;;11.95;60.99
62725;BME280;49026;52.600;4.694;2023-05-21T02:03:48;102023.56;;;11.97;60.80
62725;BME280;49026;52.600;4.694;2023-05-21T02:06:15;102024.38;;;11.99;61.27
62725;BME280;49026;52.600;4.694;2023-05-21T02:08:40;102026.94;;;12.02;61.32
62725;BME280;49026;52.600;4.694;2023-05-21T02:11:08;102032.97;;;12.06;61.21
62725;BME280;49026;52.600;4.694;2023-05-21T02:13:33;102028.53;;;12.08;60.98
62725;BME280;49026;52.600;4.694;2023-05-21T02:16:04;102034.63;;;12.10;61.49
62725;BME280;49026;52.600;4.694;2023-05-21T02:18:34;102034.59;;;12.12;61.07
62725;BME280;49026;52.600;4.694;2023-05-21T02:21:02;102031.91;;;12.13;61.30
62725;BME280;49026;52.600;4.694;2023-05-21T02:23:28;102027.47;;;12.15;61.75
62725;BME280;49026;52.600;4.694;2023-05-21T02:25:55;102031.78;;;12.18;62.11
62725;BME280;49026;52.600;4.694;2023-05-21T02:28:20;102023.81;;;12.19;61.44
62725;BME280;49026;52.600;4.694;2023-05-21T02:30:46;102030.81;;;12.20;61.33
62725;BME280;49026;52.600;4.694;2023-05-21T02:33:11;102033.38;;;12.23;61.27
62725;BME280;49026;52.600;4.694;2023-05-21T02:35:41;102030.66;;;12.27;61.60
62725;BME280;49026;52.600;4.694;2023-05-21T02:38:07;102026.25;;;12.27;61.24
62725;BME280;49026;52.600;4.694;2023-05-21T02:40:33;102032.28;;;12.31;61.68
62725;BME280;49026;52.600;4.694;2023-05-21T02:42:59;102034.88;;;12.32;61.63
62725;BME280;49026;52.600;4.694;2023-05-21T02:45:24;102028.69;;;12.35;61.85
62725;BME280;49026;52.600;4.694;2023-05-21T02:47:52;102029.50;;;12.37;61.66
62725;BME280;49026;52.600;4.694;2023-05-21T02:50:17;102032.91;;;12.40;61.71
62725;BME280;49026;52.600;4.694;2023-05-21T02:52:45;102031.06;;;12.42;61.84
62725;BME280;49026;52.600;4.694;2023-05-21T02:55:10;102024.88;;;12.45;61.70
62725;BME280;49026;52.600;4.694;2023-05-21T02:57:35;102026.56;;;12.46;61.72
62725;BME280;49026;52.600;4.694;2023-05-21T03:00:01;102021.25;;;12.48;61.78
62725;BME280;49026;52.600;4.694;2023-05-21T03:02:27;102017.72;;;12.49;61.85
62725;BME280;49026;52.600;4.694;2023-05-21T03:04:55;102008.91;;;12.50;62.34
62725;BME280;49026;52.600;4.694;2023-05-21T03:07:23;102015.84;;;12.52;62.28
62725;BME280;49026;52.600;4.694;2023-05-21T03:09:48;102013.22;;;12.52;61.94
62725;BME280;49026;52.600;4.694;2023-05-21T03:12:14;102019.31;;;12.54;61.89
62725;BME280;49026;52.600;4.694;2023-05-21T03:14:39;102016.66;;;12.54;61.96
62725;BME280;49026;52.600;4.694;2023-05-21T03:17:08;102013.13;;;12.55;62.97
62725;BME280;49026;52.600;4.694;2023-05-21T03:19:38;102013.13;;;12.55;61.93
62725;BME280;49026;52.600;4.694;2023-05-21T03:22:03;102013.94;;;12.57;62.03
62725;BME280;49026;52.600;4.694;2023-05-21T03:24:31;102008.69;;;12.57;62.31
62725;BME280;49026;52.600;4.694;2023-05-21T03:26:57;102001.66;;;12.58;62.09
62725;BME280;49026;52.600;4.694;2023-05-21T03:29:23;102005.13;;;12.58;62.32
62725;BME280;49026;52.600;4.694;2023-05-21T03:31:48;102002.50;;;12.58;62.50
62725;BME280;49026;52.600;4.694;2023-05-21T03:34:16;102001.56;;;12.59;62.58
62725;BME280;49026;52.600;4.694;2023-05-21T03:36:41;102004.16;;;12.61;62.49
62725;BME280;49026;52.600;4.694;2023-05-21T03:39:06;102004.16;;;12.61;62.40
62725;BME280;49026;52.600;4.694;2023-05-21T03:41:32;101997.13;;;12.62;62.04
62725;BME280;49026;52.600;4.694;2023-05-21T03:44:00;102001.41;;;12.66;62.59
62725;BME280;49026;52.600;4.694;2023-05-21T03:46:25;101995.19;;;12.68;62.29
62725;BME280;49026;52.600;4.694;2023-05-21T03:48:54;101998.63;;;12.70;63.37
62725;BME280;49026;52.600;4.694;2023-05-21T03:51:19;101995.09;;;12.71;62.58
62725;BME280;49026;52.600;4.694;2023-05-21T03:53:44;101997.66;;;12.73;62.45
62725;BME280;49026;52.600;4.694;2023-05-21T03:56:10;102003.78;;;12.75;62.25
62725;BME280;49026;52.600;4.694;2023-05-21T03:58:35;102002.88;;;12.74;62.96
62725;BME280;49026;52.600;4.694;2023-05-21T04:01:01;102005.47;;;12.76;62.81
62725;BME280;49026;52.600;4.694;2023-05-21T04:03:28;101999.31;;;12.77;62.45
62725;BME280;49026;52.600;4.694;2023-05-21T04:05:56;102014.22;;;12.78;62.71
62725;BME280;49026;52.600;4.694;2023-05-21T04:08:21;102006.25;;;12.79;63.20
62725;BME280;49026;52.600;4.694;2023-05-21T04:10:46;102009.75;;;12.80;62.75
62725;BME280;49026;52.600;4.694;2023-05-21T04:13:11;102008.84;;;12.81;62.52
62725;BME280;49026;52.600;4.694;2023-05-21T04:15:37;102014.06;;;12.83;62.42
62725;BME280;49026;52.600;4.694;2023-05-21T04:18:03;102014.03;;;12.84;62.58
62725;BME280;49026;52.600;4.694;2023-05-21T04:20:28;102010.50;;;12.85;62.71
62725;BME280;49026;52.600;4.694;2023-05-21T04:22:54;102013.97;;;12.86;63.02
62725;BME280;49026;52.600;4.694;2023-05-21T04:25:19;102007.84;;;12.85;63.00
62725;BME280;49026;52.600;4.694;2023-05-21T04:27:46;102007.81;;;12.87;62.92
62725;BME280;49026;52.600;4.694;2023-05-21T04:30:12;102001.59;;;12.88;62.92
62725;BME280;49026;52.600;4.694;2023-05-21T04:32:37;102004.19;;;12.89;63.05
62725;BME280;49026;52.600;4.694;2023-05-21T04:35:03;102008.56;;;12.90;62.71
62725;BME280;49026;52.600;4.694;2023-05-21T04:37:29;102016.47;;;12.90;63.20
62725;BME280;49026;52.600;4.694;2023-05-21T04:39:57;102014.66;;;12.92;63.20
62725;BME280;49026;52.600;4.694;2023-05-21T04:42:22;102014.59;;;12.94;63.69
62725;BME280;49026;52.600;4.694;2023-05-21T04:44:54;102010.13;;;12.96;63.14
62725;BME280;49026;52.600;4.694;2023-05-21T04:47:19;102018.00;;;12.97;63.98
62725;BME280;49026;52.600;4.694;2023-05-21T04:49:45;102017.06;;;13.00;64.55
62725;BME280;49026;52.600;4.694;2023-05-21T04:52:15;102011.69;;;13.03;63.89
62725;BME280;49026;52.600;4.694;2023-05-21T04:54:40;102019.44;;;13.08;63.45
62725;BME280;49026;52.600;4.694;2023-05-21T04:57:06;102022.78;;;13.13;63.07
62725;BME280;49026;52.600;4.694;2023-05-21T04:59:31;102020.91;;;13.18;63.94
62725;BME280;49026;52.600;4.694;2023-05-21T05:01:57;102019.81;;;13.24;63.65
62725;BME280;49026;52.600;4.694;2023-05-21T05:04:22;102007.34;;;13.29;63.65
62725;BME280;49026;52.600;4.694;2023-05-21T05:06:47;102012.41;;;13.37;65.67
62725;BME280;49026;52.600;4.694;2023-05-21T05:09:15;102005.91;;;13.47;63.88
62725;BME280;49026;52.600;4.694;2023-05-21T05:11:40;102001.13;;;13.58;63.85
62725;BME280;49026;52.600;4.694;2023-05-21T05:14:06;102000.34;;;13.80;63.41
62725;BME280;49026;52.600;4.694;2023-05-21T05:16:31;101993.72;;;14.18;63.21
62725;BME280;49026;52.600;4.694;2023-05-21T05:19:00;101994.22;;;14.52;63.11
62725;BME280;49026;52.600;4.694;2023-05-21T05:21:26;101995.50;;;14.65;63.18
62725;BME280;49026;52.600;4.694;2023-05-21T05:23:51;101988.94;;;14.75;62.95
62725;BME280;49026;52.600;4.694;2023-05-21T05:26:16;101991.56;;;14.75;63.39
62725;BME280;49026;52.600;4.694;2023-05-21T05:28:44;101989.66;;;14.79;63.63
62725;BME280;49026;52.600;4.694;2023-05-21T05:31:10;101991.25;;;14.83;62.34
62725;BME280;49026;52.600;4.694;2023-05-21T05:33:35;101987.75;;;14.82;62.68
62725;BME280;49026;52.600;4.694;2023-05-21T05:36:01;101985.34;;;14.76;62.93
62725;BME280;49026;52.600;4.694;2023-05-21T05:38:28;101982.06;;;14.70;63.51
62725;BME280;49026;52.600;4.694;2023-05-21T05:40:53;101991.00;;;14.67;63.51
62725;BME280;49026;52.600;4.694;2023-05-21T05:43:19;101984.00;;;14.66;62.64
62725;BME280;49026;52.600;4.694;2023-05-21T05:45:46;101990.00;;;14.70;63.61
62725;BME280;49026;52.600;4.694;2023-05-21T05:48:13;101984.44;;;14.77;63.11
62725;BME280;49026;52.600;4.694;2023-05-21T05:50:38;101983.25;;;14.85;63.75
62725;BME280;49026;52.600;4.694;2023-05-21T05:53:03;101983.50;;;15.00;63.95
62725;BME280;49026;52.600;4.694;2023-05-21T05:55:28;101980.81;;;15.02;64.60
62725;BME280;49026;52.600;4.694;2023-05-21T05:57:54;101976.09;;;14.87;64.52
62725;BME280;49026;52.600;4.694;2023-05-21T06:00:19;101979.25;;;14.74;63.95
62725;BME280;49026;52.600;4.694;2023-05-21T06:02:44;101975.13;;;14.67;64.02
62725;BME280;49026;52.600;4.694;2023-05-21T06:05:10;101970.03;;;14.62;64.36
62725;BME280;49026;52.600;4.694;2023-05-21T06:07:38;101969.28;;;14.59;63.62
62725;BME280;49026;52.600;4.694;2023-05-21T06:10:05;101975.56;;;14.55;64.33
62725;BME280;49026;52.600;4.694;2023-05-21T06:12:33;101975.56;;;14.55;65.66
62725;BME280;49026;52.600;4.694;2023-05-21T06:14:58;101964.94;;;14.56;65.80
62725;BME280;49026;52.600;4.694;2023-05-21T06:17:23;101972.72;;;14.61;64.42
62725;BME280;49026;52.600;4.694;2023-05-21T06:19:49;101974.25;;;14.67;64.92
62725;BME280;49026;52.600;4.694;2023-05-21T06:22:14;101968.69;;;14.74;64.18
62725;BME280;49026;52.600;4.694;2023-05-21T06:24:42;101971.09;;;14.80;65.38
62725;BME280;49026;52.600;4.694;2023-05-21T06:27:07;101971.69;;;14.87;65.59
62725;BME280;49026;52.600;4.694;2023-05-21T06:29:32;101979.47;;;14.92;66.29
62725;BME280;49026;52.600;4.694;2023-05-21T06:31:58;101972.56;;;14.88;65.46
62725;BME280;49026;52.600;4.694;2023-05-21T06:34:26;101982.16;;;14.90;64.29
62725;BME280;49026;52.600;4.694;2023-05-21T06:36:53;101977.06;;;14.86;64.52
62725;BME280;49026;52.600;4.694;2023-05-21T06:39:18;101979.09;;;14.79;64.67
62725;BME280;49026;52.600;4.694;2023-05-21T06:41:43;101978.09;;;14.81;64.15
62725;BME280;49026;52.600;4.694;2023-05-21T06:44:09;101980.59;;;14.85;64.65
62725;BME280;49026;52.600;4.694;2023-05-21T06:46:35;101990.28;;;14.86;64.90
62725;BME280;49026;52.600;4.694;2023-05-21T06:49:02;101991.03;;;14.89;64.34
62725;BME280;49026;52.600;4.694;2023-05-21T06:51:27;101986.63;;;14.88;64.70
62725;BME280;49026;52.600;4.694;2023-05-21T06:53:53;101999.94;;;14.87;65.13
62725;BME280;49026;52.600;4.694;2023-05-21T06:56:18;101997.22;;;14.88;64.40
62725;BME280;49026;52.600;4.694;2023-05-21T06:58:43;101999.50;;;14.97;64.83
62725;BME280;49026;52.600;4.694;2023-05-21T07:01:09;102001.16;;;15.00;65.34
62725;BME280;49026;52.600;4.694;2023-05-21T07:03:35;101999.22;;;15.05;64.94
62725;BME280;49026;52.600;4.694;2023-05-21T07:06:01;101998.75;;;15.16;65.54
62725;BME280;49026;52.600;4.694;2023-05-21T07:08:26;101984.94;;;15.30;65.77
62725;BME280;49026;52.600;4.694;2023-05-21T07:10:51;101985.06;;;15.49;64.88
62725;BME280;49026;52.600;4.694;2023-05-21T07:13:17;101989.50;;;15.69;64.48
62725;BME280;49026;52.600;4.694;2023-05-21T07:15:42;101987.06;;;15.85;64.83
62725;BME280;49026;52.600;4.694;2023-05-21T07:18:07;101998.50;;;16.06;64.38
62725;BME280;49026;52.600;4.694;2023-05-21T07:20:32;101979.09;;;16.24;64.24
62725;BME280;49026;52.600;4.694;2023-05-21T07:22:58;101985.69;;;16.35;64.18
62725;BME280;49026;52.600;4.694;2023-05-21T07:25:23;101988.00;;;16.42;64.15
62725;BME280;49026;52.600;4.694;2023-05-21T07:27:51;101981.84;;;16.61;63.76
62725;BME280;49026;52.600;4.694;2023-05-21T07:30:16;101992.44;;;16.80;64.00
62725;BME280;49026;52.600;4.694;2023-05-21T07:32:44;101991.56;;;16.98;63.85
62725;BME280;49026;52.600;4.694;2023-05-21T07:35:09;101998.06;;;17.10;63.66
62725;BME280;49026;52.600;4.694;2023-05-21T07:37:37;102001.59;;;17.28;63.67
62725;BME280;49026;52.600;4.694;2023-05-21T07:40:02;102001.53;;;17.47;63.55
62725;BME280;49026;52.600;4.694;2023-05-21T07:42:29;101996.06;;;17.50;63.09
62725;BME280;49026;52.600;4.694;2023-05-21T07:44:58;101999.13;;;17.60;62.98
62725;BME280;49026;52.600;4.694;2023-05-21T07:47:23;101999.28;;;17.74;63.16
62725;BME280;49026;52.600;4.694;2023-05-21T07:49:48;102004.16;;;17.82;62.62
62725;BME280;49026;52.600;4.694;2023-05-21T07:52:14;101998.16;;;17.78;62.50
62725;BME280;49026;52.600;4.694;2023-05-21T07:54:39;101996.13;;;17.84;62.71
62725;BME280;49026;52.600;4.694;2023-05-21T07:57:04;101996.84;;;17.87;62.59
62725;BME280;49026;52.600;4.694;2023-05-21T07:59:32;101998.09;;;17.80;62.28
62725;BME280;49026;52.600;4.694;2023-05-21T08:02:00;102001.53;;;17.65;62.42
62725;BME280;49026;52.600;4.694;2023-05-21T08:04:25;101995.69;;;17.58;62.16
62725;BME280;49026;52.600;4.694;2023-05-21T08:06:51;101996.94;;;17.51;62.30
62725;BME280;49026;52.600;4.694;2023-05-21T08:09:16;101994.44;;;17.48;62.39
62725;BME280;49026;52.600;4.694;2023-05-21T08:11:43;102001.59;;;17.46;62.22
62725;BME280;49026;52.600;4.694;2023-05-21T08:14:08;101998.66;;;17.52;62.16
62725;BME280;49026;52.600;4.694;2023-05-21T08:16:34;102004.13;;;17.66;62.07
62725;BME280;49026;52.600;4.694;2023-05-21T08:19:00;101998.47;;;17.72;62.10
62725;BME280;49026;52.600;4.694;2023-05-21T08:21:26;101993.34;;;17.69;62.02
62725;BME280;49026;52.600;4.694;2023-05-21T08:23:51;101993.97;;;17.74;61.82
62725;BME280;49026;52.600;4.694;2023-05-21T08:26:16;101995.34;;;17.82;61.90
62725;BME280;49026;52.600;4.694;2023-05-21T08:28:42;102000.66;;;17.82;61.82
62725;BME280;49026;52.600;4.694;2023-05-21T08:31:07;102006.69;;;17.85;61.94
62725;BME280;49026;52.600;4.694;2023-05-21T08:33:34;102004.50;;;17.93;61.78
62725;BME280;49026;52.600;4.694;2023-05-21T08:36:01;101998.72;;;18.03;61.69
62725;BME280;49026;52.600;4.694;2023-05-21T08:38:29;101997.28;;;18.13;61.61
62725;BME280;49026;52.600;4.694;2023-05-21T08:40:55;101994.78;;;18.26;61.21
62725;BME280;49026;52.600;4.694;2023-05-21T08:43:22;101994.75;;;18.43;61.44
62725;BME280;49026;52.600;4.694;2023-05-21T08:45:56;101984.53;;;18.51;60.56
62725;BME280;49026;52.600;4.694;2023-05-21T08:48:25;101984.97;;;18.60;60.89
62725;BME280;49026;52.600;4.694;2023-05-21T08:50:53;101981.28;;;18.78;60.39
62725;BME280;49026;52.600;4.694;2023-05-21T08:53:20;101979.50;;;18.95;60.56
62725;BME280;49026;52.600;4.694;2023-05-21T08:55:45;101981.97;;;18.98;59.90
62725;BME280;49026;52.600;4.694;2023-05-21T08:58:13;101979.50;;;18.95;59.44
62725;BME280;49026;52.600;4.694;2023-05-21T09:00:38;101979.13;;;19.01;60.36
62725;BME280;49026;52.600;4.694;2023-05-21T09:03:04;101979.13;;;19.01;59.46
62725;BME280;49026;52.600;4.694;2023-05-21T09:05:39;101983.78;;;18.81;59.34
62725;BME280;49026;52.600;4.694;2023-05-21T09:08:07;101976.19;;;18.74;57.16
62725;BME280;49026;52.600;4.694;2023-05-21T09:10:37;101980.97;;;18.84;59.58
62725;BME280;49026;52.600;4.694;2023-05-21T09:13:03;101965.44;;;19.07;59.87
62725;BME280;49026;52.600;4.694;2023-05-21T09:15:29;101983.03;;;19.25;59.79
62725;BME280;49026;52.600;4.694;2023-05-21T09:17:54;101974.59;;;19.48;59.25
62725;BME280;49026;52.600;4.694;2023-05-21T09:20:25;101976.81;;;19.55;59.40
62725;BME280;49026;52.600;4.694;2023-05-21T09:22:53;101968.06;;;19.68;58.91
62725;BME280;49026;52.600;4.694;2023-05-21T09:25:22;101970.34;;;19.59;58.99
62725;BME280;49026;52.600;4.694;2023-05-21T09:27:52;101974.53;;;19.49;59.00
62725;BME280;49026;52.600;4.694;2023-05-21T09:30:19;101970.91;;;19.50;58.85
62725;BME280;49026;52.600;4.694;2023-05-21T09:32:56;101964.34;;;19.56;59.04
62725;BME280;49026;52.600;4.694;2023-05-21T09:35:21;101977.03;;;19.67;58.97
62725;BME280;49026;52.600;4.694;2023-05-21T09:37:50;101976.63;;;20.03;58.96
62725;BME280;49026;52.600;4.694;2023-05-21T09:40:17;101973.56;;;20.24;58.60
62725;BME280;49026;52.600;4.694;2023-05-21T09:42:45;101970.97;;;20.36;58.75
62725;BME280;49026;52.600;4.694;2023-05-21T09:45:11;101963.91;;;20.50;59.50
62725;BME280;49026;52.600;4.694;2023-05-21T09:47:41;101956.25;;;20.58;59.48
62725;BME280;49026;52.600;4.694;2023-05-21T09:50:10;101968.53;;;20.61;58.90
62725;BME280;49026;52.600;4.694;2023-05-21T09:52:37;101963.88;;;20.64;59.68
62725;BME280;49026;52.600;4.694;2023-05-21T09:55:09;101968.19;;;20.67;59.13
62725;BME280;49026;52.600;4.694;2023-05-21T09:57:40;101969.38;;;20.76;59.46
62725;BME280;49026;52.600;4.694;2023-05-21T10:00:06;101969.47;;;20.74;58.71
62725;BME280;49026;52.600;4.694;2023-05-21T10:02:36;101964.97;;;20.75;59.17
62725;BME280;49026;52.600;4.694;2023-05-21T10:05:07;101959.91;;;20.84;59.18
62725;BME280;49026;52.600;4.694;2023-05-21T10:07:34;101964.47;;;21.09;58.86
62725;BME280;49026;52.600;4.694;2023-05-21T10:10:02;101982.47;;;21.33;58.70
62725;BME280;49026;52.600;4.694;2023-05-21T10:12:29;101951.28;;;21.46;58.16
62725;BME280;49026;52.600;4.694;2023-05-21T10:15:00;101963.22;;;21.28;58.10
62725;BME280;49026;52.600;4.694;2023-05-21T10:17:28;101945.94;;;21.34;58.60
62725;BME280;49026;52.600;4.694;2023-05-21T10:19:58;101955.63;;;21.35;57.82
62725;BME280;49026;52.600;4.694;2023-05-21T10:22:24;101963.97;;;21.17;57.90
62725;BME280;49026;52.600;4.694;2023-05-21T10:24:51;101937.19;;;21.04;57.14
62725;BME280;49026;52.600;4.694;2023-05-21T10:27:17;101944.53;;;20.88;57.45
62725;BME280;49026;52.600;4.694;2023-05-21T10:29:43;101951.13;;;20.82;56.79
62725;BME280;49026;52.600;4.694;2023-05-21T10:32:14;101951.56;;;20.62;56.88
62725;BME280;49026;52.600;4.694;2023-05-21T10:34:42;101947.50;;;20.42;56.98
62725;BME280;49026;52.600;4.694;2023-05-21T10:37:11;101948.66;;;20.38;57.57
62725;BME280;49026;52.600;4.694;2023-05-21T10:39:37;101954.00;;;20.38;57.00
62725;BME280;49026;52.600;4.694;2023-05-21T10:45:11;101954.63;;;19.85;56.67
62725;BME280;49026;52.600;4.694;2023-05-21T10:56:23;101940.88;;;19.77;57.21
62725;BME280;49026;52.600;4.694;2023-05-21T10:59:13;101932.28;;;19.72;57.08
62725;BME280;49026;52.600;4.694;2023-05-21T11:01:49;101930.03;;;19.80;57.31
62725;BME280;49026;52.600;4.694;2023-05-21T11:04:20;101932.13;;;20.04;57.07
62725;BME280;49026;52.600;4.694;2023-05-21T11:06:46;101928.09;;;20.11;56.29
62725;BME280;49026;52.600;4.694;2023-05-21T11:09:22;101924.03;;;20.05;56.78
62725;BME280;49026;52.600;4.694;2023-05-21T11:11:51;101933.16;;;20.15;56.81
62725;BME280;49026;52.600;4.694;2023-05-21T11:17:09;101936.38;;;20.21;57.14
62725;BME280;49026;52.600;4.694;2023-05-21T11:19:36;101936.09;;;20.25;57.05
62725;BME280;49026;52.600;4.694;2023-05-21T11:22:25;101932.06;;;20.32;57.05
62725;BME280;49026;52.600;4.694;2023-05-21T11:24:51;101926.59;;;20.07;57.11
62725;BME280;49026;52.600;4.694;2023-05-21T11:27:36;101937.75;;;19.85;56.98
62725;BME280;49026;52.600;4.694;2023-05-21T11:30:06;101931.06;;;19.77;57.39
62725;BME280;49026;52.600;4.694;2023-05-21T11:32:36;101941.03;;;19.74;57.29
62725;BME280;49026;52.600;4.694;2023-05-21T11:35:02;101930.38;;;19.74;56.87
62725;BME280;49026;52.600;4.694;2023-05-21T11:37:33;101933.31;;;19.69;57.17
62725;BME280;49026;52.600;4.694;2023-05-21T11:40:24;101933.84;;;19.90;57.31
62725;BME280;49026;52.600;4.694;2023-05-21T11:42:54;101929.94;;;19.96;56.64
62725;BME280;49026;52.600;4.694;2023-05-21T11:45:27;101906.38;;;19.74;56.66
62725;BME280;49026;52.600;4.694;2023-05-21T11:47:53;101914.03;;;19.80;57.39
62725;BME280;49026;52.600;4.694;2023-05-21T11:50:20;101921.31;;;20.20;57.50
62725;BME280;49026;52.600;4.694;2023-05-21T11:52:45;101910.19;;;20.54;56.39
62725;BME280;49026;52.600;4.694;2023-05-21T11:55:11;101917.91;;;20.59;55.85
62725;BME280;49026;52.600;4.694;2023-05-21T11:57:40;101901.34;;;20.40;56.56
62725;BME280;49026;52.600;4.694;2023-05-21T12:00:12;101905.03;;;20.24;56.34
62725;BME280;49026;52.600;4.694;2023-05-21T12:02:43;101899.69;;;20.24;56.54
62725;BME280;49026;52.600;4.694;2023-05-21T12:05:09;101892.00;;;20.47;56.88
62725;BME280;49026;52.600;4.694;2023-05-21T12:07:34;101894.84;;;20.58;56.75
62725;BME280;49026;52.600;4.694;2023-05-21T12:09:59;101884.34;;;20.55;56.49
62725;BME280;49026;52.600;4.694;2023-05-21T12:12:27;101886.03;;;20.70;56.98
62725;BME280;49026;52.600;4.694;2023-05-21T12:14:53;101885.97;;;20.85;55.30
62725;BME280;49026;52.600;4.694;2023-05-21T12:17:23;101882.44;;;20.84;55.66
62725;BME280;49026;52.600;4.694;2023-05-21T12:19:53;101882.47;;;20.97;56.09
62725;BME280;49026;52.600;4.694;2023-05-21T12:22:20;101875.19;;;20.99;55.38
62725;BME280;49026;52.600;4.694;2023-05-21T12:24:47;101877.63;;;20.89;55.50
62725;BME280;49026;52.600;4.694;2023-05-21T12:27:12;101873.81;;;20.94;56.35
62725;BME280;49026;52.600;4.694;2023-05-21T12:29:43;101874.91;;;21.04;55.59
62725;BME280;49026;52.600;4.694;2023-05-21T12:32:10;101871.03;;;21.08;55.33
62725;BME280;49026;52.600;4.694;2023-05-21T12:37:06;101871.81;;;21.23;55.44
62725;BME280;49026;52.600;4.694;2023-05-21T12:39:32;101859.19;;;21.25;55.52
62725;BME280;49026;52.600;4.694;2023-05-21T12:42:01;101869.16;;;21.36;54.73
62725;BME280;49026;52.600;4.694;2023-05-21T12:44:30;101863.16;;;21.32;53.96
62725;BME280;49026;52.600;4.694;2023-05-21T12:46:56;101867.81;;;21.03;54.01
62725;BME280;49026;52.600;4.694;2023-05-21T12:49:37;101857.78;;;20.94;54.26
62725;BME280;49026;52.600;4.694;2023-05-21T12:52:04;101852.69;;;21.03;55.24
62725;BME280;49026;52.600;4.694;2023-05-21T12:54:34;101861.22;;;21.08;53.99
62725;BME280;49026;52.600;4.694;2023-05-21T12:57:15;101859.50;;;21.07;54.93
62725;BME280;49026;52.600;4.694;2023-05-21T12:59:45;101854.16;;;21.33;54.31
62725;BME280;49026;52.600;4.694;2023-05-21T13:02:23;101852.25;;;21.35;54.33
62725;BME280;49026;52.600;4.694;2023-05-21T13:05:00;101844.78;;;21.40;54.42
62725;BME280;49026;52.600;4.694;2023-05-21T13:07:28;101843.56;;;21.44;54.55
62725;BME280;49026;52.600;4.694;2023-05-21T13:09:54;101845.22;;;21.47;54.29